sensor_id;sensor_type;location;lat;lon;timestamp;P1;durP1;ratioP1;P2;durP2;ratioP2
14992;SDS011;7592;51.088;13.732;2022-07-29T00:00:10;1.90;;;1.40;;
14992;SDS011;7592;51.088;13.732;2022-07-29T00:05:03;3.20;;;1.40;;
14992;SDS011;7592;51.088;13.732;2022-07-29T00:09:56;3.67;;;1.47;;
14992;SDS011;7592;51.088;13.732;2022-07-29T00:14:49;1.97;;;1.40;;
14992;SDS011;7592;51.088;13.732;2022-07-29T00:19:42;3.13;;;1.60;;
14992;SDS011;7592;51.088;13.732;2022-07-29T00:24:36;1.90;;;1.30;;
14992;SDS011;7592;51.088;13.732;2022-07-29T00:29:28;3.60;;;1.60;;
14992;SDS011;7592;51.088;13.732;2022-07-29T00:34:24;2.57;;;1.10;;
14992;SDS011;7592;51.088;13.732;2022-07-29T00:45:03;2.90;;;1.60;;
14992;SDS011;7592;51.088;13.732;2022-07-29T00:49:59;1.40;;;1.17;;
14992;SDS011;7592;51.088;13.732;2022-07-29T00:54:52;4.30;;;1.83;;
14992;SDS011;7592;51.088;13.732;2022-07-29T00:59:44;2.80;;;1.40;;
14992;SDS011;7592;51.088;13.732;2022-07-29T01:04:37;5.60;;;1.77;;
14992;SDS011;7592;51.088;13.732;2022-07-29T01:09:34;2.50;;;1.47;;
14992;SDS011;7592;51.088;13.732;2022-07-29T01:14:37;4.80;;;2.03;;
14992;SDS011;7592;51.088;13.732;2022-07-29T01:19:44;2.47;;;1.30;;
14992;SDS011;7592;51.088;13.732;2022-07-29T01:29:56;6.10;;;1.77;;
14992;SDS011;7592;51.088;13.732;2022-07-29T01:35:04;8.73;;;1.60;;
14992;SDS011;7592;51.088;13.732;2022-07-29T01:40:01;8.17;;;1.50;;
14992;SDS011;7592;51.088;13.732;2022-07-29T01:45:15;4.50;;;1.30;;
14992;SDS011;7592;51.088;13.732;2022-07-29T01:50:12;2.40;;;1.33;;
14992;SDS011;7592;51.088;13.732;2022-07-29T01:55:11;2.70;;;1.50;;
14992;SDS011;7592;51.088;13.732;2022-07-29T02:00:06;2.50;;;1.53;;
14992;SDS011;7592;51.088;13.732;2022-07-29T02:05:05;5.30;;;2.17;;
14992;SDS011;7592;51.088;13.732;2022-07-29T02:10:03;2.43;;;1.90;;
14992;SDS011;7592;51.088;13.732;2022-07-29T02:15:08;2.23;;;1.57;;
14992;SDS011;7592;51.088;13.732;2022-07-29T02:20:05;3.67;;;1.90;;
14992;SDS011;7592;51.088;13.732;2022-07-29T02:25:01;3.30;;;2.70;;
14992;SDS011;7592;51.088;13.732;2022-07-29T02:29:57;5.30;;;3.00;;
14992;SDS011;7592;51.088;13.732;2022-07-29T02:34:52;6.43;;;3.87;;
14992;SDS011;7592;51.088;13.732;2022-07-29T02:39:46;6.67;;;4.10;;
14992;SDS011;7592;51.088;13.732;2022-07-29T02:44:40;6.87;;;4.70;;
14992;SDS011;7592;51.088;13.732;2022-07-29T02:54:40;10.33;;;5.50;;
14992;SDS011;7592;51.088;13.732;2022-07-29T02:59:58;11.33;;;5.37;;
14992;SDS011;7592;51.088;13.732;2022-07-29T03:05:03;5.87;;;4.43;;
14992;SDS011;7592;51.088;13.732;2022-07-29T03:10:00;7.43;;;5.23;;
14992;SDS011;7592;51.088;13.732;2022-07-29T03:15:04;9.50;;;5.37;;
14992;SDS011;7592;51.088;13.732;2022-07-29T03:19:58;9.43;;;6.57;;
14992;SDS011;7592;51.088;13.732;2022-07-29T03:24:51;9.80;;;7.40;;
14992;SDS011;7592;51.088;13.732;2022-07-29T03:29:44;9.03;;;7.07;;
14992;SDS011;7592;51.088;13.732;2022-07-29T03:34:41;10.30;;;6.30;;
14992;SDS011;7592;51.088;13.732;2022-07-29T03:39:35;9.60;;;5.77;;
14992;SDS011;7592;51.088;13.732;2022-07-29T03:44:32;9.53;;;6.17;;
14992;SDS011;7592;51.088;13.732;2022-07-29T03:49:25;12.37;;;5.10;;
14992;SDS011;7592;51.088;13.732;2022-07-29T03:54:19;6.77;;;4.67;;
14992;SDS011;7592;51.088;13.732;2022-07-29T03:59:13;10.13;;;5.03;;
14992;SDS011;7592;51.088;13.732;2022-07-29T04:04:07;9.77;;;5.67;;
14992;SDS011;7592;51.088;13.732;2022-07-29T04:09:00;9.80;;;5.40;;
14992;SDS011;7592;51.088;13.732;2022-07-29T04:13:52;9.37;;;5.63;;
14992;SDS011;7592;51.088;13.732;2022-07-29T04:18:45;8.73;;;6.20;;
14992;SDS011;7592;51.088;13.732;2022-07-29T04:23:37;9.47;;;6.03;;
14992;SDS011;7592;51.088;13.732;2022-07-29T04:28:43;8.73;;;4.93;;
14992;SDS011;7592;51.088;13.732;2022-07-29T04:33:36;8.27;;;5.97;;
14992;SDS011;7592;51.088;13.732;2022-07-29T04:38:29;11.23;;;6.53;;
14992;SDS011;7592;51.088;13.732;2022-07-29T04:43:22;11.97;;;7.73;;
14992;SDS011;7592;51.088;13.732;2022-07-29T04:48:17;13.17;;;7.00;;
14992;SDS011;7592;51.088;13.732;2022-07-29T04:53:09;19.60;;;8.50;;
14992;SDS011;7592;51.088;13.732;2022-07-29T04:58:02;16.40;;;8.33;;
14992;SDS011;7592;51.088;13.732;2022-07-29T05:02:55;14.97;;;8.63;;
14992;SDS011;7592;51.088;13.732;2022-07-29T05:07:48;10.33;;;7.63;;
14992;SDS011;7592;51.088;13.732;2022-07-29T05:12:40;16.40;;;8.70;;
14992;SDS011;7592;51.088;13.732;2022-07-29T05:17:33;17.03;;;10.03;;
14992;SDS011;7592;51.088;13.732;2022-07-29T05:22:25;18.43;;;9.97;;
14992;SDS011;7592;51.088;13.732;2022-07-29T05:27:20;19.43;;;11.63;;
14992;SDS011;7592;51.088;13.732;2022-07-29T05:32:12;16.17;;;12.10;;
14992;SDS011;7592;51.088;13.732;2022-07-29T05:37:05;20.23;;;11.70;;
14992;SDS011;7592;51.088;13.732;2022-07-29T05:41:58;14.53;;;10.80;;
14992;SDS011;7592;51.088;13.732;2022-07-29T05:46:51;21.40;;;12.03;;
14992;SDS011;7592;51.088;13.732;2022-07-29T05:51:44;19.10;;;11.03;;
14992;SDS011;7592;51.088;13.732;2022-07-29T05:56:37;24.83;;;12.03;;
14992;SDS011;7592;51.088;13.732;2022-07-29T06:01:30;16.90;;;12.10;;
14992;SDS011;7592;51.088;13.732;2022-07-29T06:06:24;15.33;;;10.20;;
14992;SDS011;7592;51.088;13.732;2022-07-29T06:11:17;15.43;;;10.30;;
14992;SDS011;7592;51.088;13.732;2022-07-29T06:16:10;16.67;;;10.60;;
14992;SDS011;7592;51.088;13.732;2022-07-29T06:21:09;14.47;;;11.17;;
14992;SDS011;7592;51.088;13.732;2022-07-29T06:26:01;15.73;;;9.27;;
14992;SDS011;7592;51.088;13.732;2022-07-29T06:30:53;17.83;;;10.13;;
14992;SDS011;7592;51.088;13.732;2022-07-29T06:35:46;15.30;;;9.80;;
14992;SDS011;7592;51.088;13.732;2022-07-29T06:40:44;14.80;;;9.40;;
14992;SDS011;7592;51.088;13.732;2022-07-29T06:45:53;12.83;;;9.03;;
14992;SDS011;7592;51.088;13.732;2022-07-29T06:50:46;13.00;;;8.80;;
14992;SDS011;7592;51.088;13.732;2022-07-29T06:55:43;11.03;;;8.00;;
14992;SDS011;7592;51.088;13.732;2022-07-29T07:00:37;16.00;;;9.43;;
14992;SDS011;7592;51.088;13.732;2022-07-29T07:05:30;13.43;;;8.53;;
14992;SDS011;7592;51.088;13.732;2022-07-29T07:10:27;17.57;;;9.93;;
14992;SDS011;7592;51.088;13.732;2022-07-29T07:15:31;13.67;;;10.00;;
14992;SDS011;7592;51.088;13.732;2022-07-29T07:20:30;16.67;;;9.57;;
14992;SDS011;7592;51.088;13.732;2022-07-29T07:25:24;10.53;;;8.63;;
14992;SDS011;7592;51.088;13.732;2022-07-29T07:30:22;14.87;;;9.00;;
14992;SDS011;7592;51.088;13.732;2022-07-29T07:35:16;13.37;;;8.93;;
14992;SDS011;7592;51.088;13.732;2022-07-29T07:40:23;19.00;;;9.03;;
14992;SDS011;7592;51.088;13.732;2022-07-29T07:45:28;12.00;;;8.93;;
14992;SDS011;7592;51.088;13.732;2022-07-29T07:50:25;14.30;;;8.50;;
14992;SDS011;7592;51.088;13.732;2022-07-29T07:55:23;17.07;;;8.37;;
14992;SDS011;7592;51.088;13.732;2022-07-29T08:00:16;14.93;;;10.17;;
14992;SDS011;7592;51.088;13.732;2022-07-29T08:05:21;10.57;;;9.03;;
14992;SDS011;7592;51.088;13.732;2022-07-29T08:10:18;15.40;;;8.53;;
14992;SDS011;7592;51.088;13.732;2022-07-29T08:15:24;15.40;;;8.30;;
14992;SDS011;7592;51.088;13.732;2022-07-29T08:20:23;12.60;;;8.07;;
14992;SDS011;7592;51.088;13.732;2022-07-29T08:25:22;11.80;;;8.10;;
14992;SDS011;7592;51.088;13.732;2022-07-29T08:30:40;9.63;;;8.03;;
14992;SDS011;7592;51.088;13.732;2022-07-29T08:35:33;10.20;;;8.23;;
14992;SDS011;7592;51.088;13.732;2022-07-29T08:40:37;12.23;;;9.25;;
14992;SDS011;7592;51.088;13.732;2022-07-29T08:45:50;14.05;;;9.05;;
14992;SDS011;7592;51.088;13.732;2022-07-29T08:50:54;14.63;;;8.98;;
14992;SDS011;7592;51.088;13.732;2022-07-29T08:56:03;17.27;;;8.93;;
14992;SDS011;7592;51.088;13.732;2022-07-29T09:01:27;17.30;;;8.65;;
14992;SDS011;7592;51.088;13.732;2022-07-29T09:06:34;16.50;;;9.52;;
14992;SDS011;7592;51.088;13.732;2022-07-29T09:11:36;17.23;;;10.15;;
14992;SDS011;7592;51.088;13.732;2022-07-29T09:21:45;15.68;;;9.27;;
14992;SDS011;7592;51.088;13.732;2022-07-29T09:26:51;15.80;;;9.55;;
14992;SDS011;7592;51.088;13.732;2022-07-29T09:31:49;15.68;;;8.43;;
14992;SDS011;7592;51.088;13.732;2022-07-29T09:36:47;11.63;;;8.35;;
14992;SDS011;7592;51.088;13.732;2022-07-29T09:41:45;9.55;;;8.38;;
14992;SDS011;7592;51.088;13.732;2022-07-29T09:52:00;8.77;;;7.47;;
14992;SDS011;7592;51.088;13.732;2022-07-29T09:57:00;9.70;;;7.90;;
14992;SDS011;7592;51.088;13.732;2022-07-29T10:01:54;8.82;;;7.18;;
14992;SDS011;7592;51.088;13.732;2022-07-29T10:06:58;10.40;;;8.98;;
14992;SDS011;7592;51.088;13.732;2022-07-29T10:12:04;9.40;;;8.00;;
14992;SDS011;7592;51.088;13.732;2022-07-29T10:17:06;10.13;;;9.13;;
14992;SDS011;7592;51.088;13.732;2022-07-29T10:22:49;11.18;;;8.57;;
14992;SDS011;7592;51.088;13.732;2022-07-29T10:27:52;8.70;;;7.90;;
14992;SDS011;7592;51.088;13.732;2022-07-29T10:32:55;9.73;;;7.55;;
14992;SDS011;7592;51.088;13.732;2022-07-29T10:38:10;11.10;;;7.85;;
14992;SDS011;7592;51.088;13.732;2022-07-29T10:43:29;7.75;;;5.70;;
14992;SDS011;7592;51.088;13.732;2022-07-29T10:48:29;6.60;;;5.97;;
14992;SDS011;7592;51.088;13.732;2022-07-29T10:53:45;6.50;;;4.75;;
14992;SDS011;7592;51.088;13.732;2022-07-29T10:58:46;4.65;;;4.13;;
14992;SDS011;7592;51.088;13.732;2022-07-29T11:15:18;2.25;;;2.05;;
14992;SDS011;7592;51.088;13.732;2022-07-29T11:20:40;2.38;;;2.17;;
14992;SDS011;7592;51.088;13.732;2022-07-29T11:25:45;3.20;;;2.10;;
14992;SDS011;7592;51.088;13.732;2022-07-29T11:31:43;5.22;;;2.28;;
14992;SDS011;7592;51.088;13.732;2022-07-29T11:36:37;2.28;;;2.10;;
14992;SDS011;7592;51.088;13.732;2022-07-29T11:47:23;3.63;;;1.83;;
14992;SDS011;7592;51.088;13.732;2022-07-29T11:52:18;2.60;;;2.13;;
14992;SDS011;7592;51.088;13.732;2022-07-29T11:57:17;3.17;;;2.72;;
14992;SDS011;7592;51.088;13.732;2022-07-29T12:02:12;6.40;;;2.90;;
14992;SDS011;7592;51.088;13.732;2022-07-29T12:07:29;3.85;;;2.97;;
14992;SDS011;7592;51.088;13.732;2022-07-29T12:12:26;3.10;;;2.45;;
14992;SDS011;7592;51.088;13.732;2022-07-29T12:17:28;4.65;;;2.20;;
14992;SDS011;7592;51.088;13.732;2022-07-29T12:22:30;3.42;;;2.22;;
14992;SDS011;7592;51.088;13.732;2022-07-29T12:27:29;3.80;;;2.75;;
14992;SDS011;7592;51.088;13.732;2022-07-29T12:32:40;7.30;;;5.53;;
14992;SDS011;7592;51.088;13.732;2022-07-29T12:37:35;6.55;;;5.15;;
14992;SDS011;7592;51.088;13.732;2022-07-29T12:42:33;6.10;;;4.75;;
14992;SDS011;7592;51.088;13.732;2022-07-29T12:47:26;7.00;;;5.10;;
14992;SDS011;7592;51.088;13.732;2022-07-29T12:52:31;8.90;;;5.15;;
14992;SDS011;7592;51.088;13.732;2022-07-29T12:57:25;8.15;;;4.72;;
14992;SDS011;7592;51.088;13.732;2022-07-29T13:02:21;7.22;;;5.80;;
14992;SDS011;7592;51.088;13.732;2022-07-29T13:07:14;7.72;;;5.90;;
14992;SDS011;7592;51.088;13.732;2022-07-29T13:17:57;9.88;;;7.57;;
14992;SDS011;7592;51.088;13.732;2022-07-29T13:22:51;12.75;;;7.90;;
14992;SDS011;7592;51.088;13.732;2022-07-29T13:27:43;7.82;;;7.03;;
14992;SDS011;7592;51.088;13.732;2022-07-29T13:32:37;8.35;;;6.03;;
14992;SDS011;7592;51.088;13.732;2022-07-29T13:37:29;11.25;;;5.63;;
14992;SDS011;7592;51.088;13.732;2022-07-29T13:42:26;5.82;;;3.40;;
14992;SDS011;7592;51.088;13.732;2022-07-29T13:47:18;4.40;;;3.53;;
14992;SDS011;7592;51.088;13.732;2022-07-29T13:52:11;9.30;;;3.65;;
14992;SDS011;7592;51.088;13.732;2022-07-29T13:57:04;4.87;;;3.53;;
14992;SDS011;7592;51.088;13.732;2022-07-29T14:01:56;8.87;;;2.77;;
14992;SDS011;7592;51.088;13.732;2022-07-29T14:06:49;3.17;;;2.78;;
14992;SDS011;7592;51.088;13.732;2022-07-29T14:11:42;2.60;;;2.30;;
14992;SDS011;7592;51.088;13.732;2022-07-29T14:16:35;3.43;;;1.90;;
14992;SDS011;7592;51.088;13.732;2022-07-29T14:21:34;3.15;;;1.63;;
14992;SDS011;7592;51.088;13.732;2022-07-29T14:26:27;3.08;;;2.60;;
14992;SDS011;7592;51.088;13.732;2022-07-29T14:31:19;9.17;;;3.23;;
14992;SDS011;7592;51.088;13.732;2022-07-29T14:36:12;2.47;;;2.33;;
14992;SDS011;7592;51.088;13.732;2022-07-29T14:41:07;3.60;;;2.53;;
14992;SDS011;7592;51.088;13.732;2022-07-29T14:45:59;2.63;;;2.43;;
14992;SDS011;7592;51.088;13.732;2022-07-29T14:50:58;3.77;;;3.47;;
14992;SDS011;7592;51.088;13.732;2022-07-29T14:55:55;5.03;;;2.83;;
14992;SDS011;7592;51.088;13.732;2022-07-29T15:01:05;4.50;;;3.80;;
14992;SDS011;7592;51.088;13.732;2022-07-29T15:05:58;9.27;;;6.33;;
14992;SDS011;7592;51.088;13.732;2022-07-29T15:10:50;10.77;;;9.60;;
14992;SDS011;7592;51.088;13.732;2022-07-29T15:15:42;10.10;;;8.90;;
14992;SDS011;7592;51.088;13.732;2022-07-29T15:20:35;10.37;;;8.67;;
14992;SDS011;7592;51.088;13.732;2022-07-29T15:25:28;11.60;;;8.10;;
14992;SDS011;7592;51.088;13.732;2022-07-29T15:30:20;10.80;;;7.83;;
14992;SDS011;7592;51.088;13.732;2022-07-29T15:35:24;11.40;;;7.63;;
14992;SDS011;7592;51.088;13.732;2022-07-29T15:40:18;9.00;;;8.13;;
14992;SDS011;7592;51.088;13.732;2022-07-29T15:45:10;8.57;;;7.17;;
14992;SDS011;7592;51.088;13.732;2022-07-29T15:50:03;9.63;;;7.17;;
14992;SDS011;7592;51.088;13.732;2022-07-29T15:54:55;10.47;;;8.67;;
14992;SDS011;7592;51.088;13.732;2022-07-29T15:59:48;13.43;;;8.70;;
14992;SDS011;7592;51.088;13.732;2022-07-29T16:04:40;8.97;;;8.00;;
14992;SDS011;7592;51.088;13.732;2022-07-29T16:09:33;10.63;;;8.20;;
14992;SDS011;7592;51.088;13.732;2022-07-29T16:14:25;8.40;;;7.60;;
14992;SDS011;7592;51.088;13.732;2022-07-29T16:19:18;10.23;;;6.47;;
14992;SDS011;7592;51.088;13.732;2022-07-29T16:24:11;10.83;;;6.30;;
14992;SDS011;7592;51.088;13.732;2022-07-29T16:29:03;7.00;;;6.20;;
14992;SDS011;7592;51.088;13.732;2022-07-29T16:33:56;7.50;;;5.27;;
14992;SDS011;7592;51.088;13.732;2022-07-29T16:38:48;8.50;;;5.37;;
14992;SDS011;7592;51.088;13.732;2022-07-29T16:43:41;6.07;;;5.47;;
14992;SDS011;7592;51.088;13.732;2022-07-29T16:48:33;6.27;;;5.40;;
14992;SDS011;7592;51.088;13.732;2022-07-29T16:53:29;6.40;;;5.47;;
14992;SDS011;7592;51.088;13.732;2022-07-29T16:58:21;9.03;;;4.67;;
14992;SDS011;7592;51.088;13.732;2022-07-29T17:03:13;8.43;;;4.60;;
14992;SDS011;7592;51.088;13.732;2022-07-29T17:08:06;5.67;;;4.07;;
14992;SDS011;7592;51.088;13.732;2022-07-29T17:12:58;4.57;;;3.20;;
14992;SDS011;7592;51.088;13.732;2022-07-29T17:17:51;6.87;;;3.40;;
14992;SDS011;7592;51.088;13.732;2022-07-29T17:22:47;5.20;;;3.50;;
14992;SDS011;7592;51.088;13.732;2022-07-29T17:27:39;8.13;;;3.20;;
14992;SDS011;7592;51.088;13.732;2022-07-29T17:32:33;4.13;;;2.77;;
14992;SDS011;7592;51.088;13.732;2022-07-29T17:37:29;6.13;;;3.10;;
14992;SDS011;7592;51.088;13.732;2022-07-29T17:42:23;4.73;;;4.33;;
14992;SDS011;7592;51.088;13.732;2022-07-29T17:47:15;5.00;;;4.50;;
14992;SDS011;7592;51.088;13.732;2022-07-29T17:52:08;5.03;;;2.90;;
14992;SDS011;7592;51.088;13.732;2022-07-29T17:57:00;4.30;;;3.00;;
14992;SDS011;7592;51.088;13.732;2022-07-29T18:01:53;5.63;;;3.10;;
14992;SDS011;7592;51.088;13.732;2022-07-29T18:06:45;3.33;;;3.03;;
14992;SDS011;7592;51.088;13.732;2022-07-29T18:11:37;3.17;;;2.70;;
14992;SDS011;7592;51.088;13.732;2022-07-29T18:16:34;3.07;;;2.70;;
14992;SDS011;7592;51.088;13.732;2022-07-29T18:21:28;3.23;;;2.50;;
14992;SDS011;7592;51.088;13.732;2022-07-29T18:26:44;4.77;;;3.30;;
14992;SDS011;7592;51.088;13.732;2022-07-29T18:51:37;7.40;;;4.03;;
14992;SDS011;7592;51.088;13.732;2022-07-29T18:56:30;3.23;;;2.67;;
14992;SDS011;7592;51.088;13.732;2022-07-29T19:01:29;13.23;;;6.17;;
14992;SDS011;7592;51.088;13.732;2022-07-29T19:06:22;4.33;;;3.50;;
14992;SDS011;7592;51.088;13.732;2022-07-29T19:11:16;3.20;;;2.90;;
14992;SDS011;7592;51.088;13.732;2022-07-29T19:16:09;3.33;;;3.03;;
14992;SDS011;7592;51.088;13.732;2022-07-29T19:21:09;5.17;;;3.17;;
14992;SDS011;7592;51.088;13.732;2022-07-29T19:26:01;4.57;;;3.30;;
14992;SDS011;7592;51.088;13.732;2022-07-29T19:30:58;7.13;;;4.23;;
14992;SDS011;7592;51.088;13.732;2022-07-29T19:35:51;6.90;;;5.97;;
14992;SDS011;7592;51.088;13.732;2022-07-29T19:40:45;5.90;;;4.27;;
14992;SDS011;7592;51.088;13.732;2022-07-29T19:45:38;4.97;;;3.20;;
14992;SDS011;7592;51.088;13.732;2022-07-29T19:50:30;5.33;;;3.40;;
14992;SDS011;7592;51.088;13.732;2022-07-29T21:52:03;6.90;;;3.40;;
14992;SDS011;7592;51.088;13.732;2022-07-29T21:56:58;7.03;;;3.23;;
14992;SDS011;7592;51.088;13.732;2022-07-29T22:01:51;3.87;;;3.27;;
14992;SDS011;7592;51.088;13.732;2022-07-29T22:06:43;11.93;;;4.17;;
14992;SDS011;7592;51.088;13.732;2022-07-29T22:11:35;6.00;;;3.10;;
14992;SDS011;7592;51.088;13.732;2022-07-29T22:16:28;6.93;;;3.13;;
14992;SDS011;7592;51.088;13.732;2022-07-29T22:21:20;3.20;;;2.90;;
14992;SDS011;7592;51.088;13.732;2022-07-29T22:26:12;4.57;;;3.03;;
14992;SDS011;7592;51.088;13.732;2022-07-29T22:31:04;5.07;;;3.70;;
14992;SDS011;7592;51.088;13.732;2022-07-29T22:35:57;9.10;;;3.40;;
14992;SDS011;7592;51.088;13.732;2022-07-29T22:40:49;5.17;;;3.77;;
14992;SDS011;7592;51.088;13.732;2022-07-29T22:45:43;6.40;;;3.30;;
14992;SDS011;7592;51.088;13.732;2022-07-29T22:50:35;5.40;;;3.83;;
14992;SDS011;7592;51.088;13.732;2022-07-29T22:55:27;7.47;;;3.67;;
14992;SDS011;7592;51.088;13.732;2022-07-29T23:00:19;4.70;;;3.80;;
14992;SDS011;7592;51.088;13.732;2022-07-29T23:05:11;3.90;;;3.53;;
14992;SDS011;7592;51.088;13.732;2022-07-29T23:10:06;8.70;;;3.90;;
14992;SDS011;7592;51.088;13.732;2022-07-29T23:14:58;4.77;;;4.10;;
14992;SDS011;7592;51.088;13.732;2022-07-29T23:19:51;4.57;;;4.17;;
14992;SDS011;7592;51.088;13.732;2022-07-29T23:24:43;3.90;;;3.60;;
14992;SDS011;7592;51.088;13.732;2022-07-29T23:29:35;5.50;;;3.60;;
14992;SDS011;7592;51.088;13.732;2022-07-29T23:34:27;6.97;;;4.67;;
14992;SDS011;7592;51.088;13.732;2022-07-29T23:39:19;7.00;;;6.30;;
14992;SDS011;7592;51.088;13.732;2022-07-29T23:44:11;9.30;;;6.13;;
14992;SDS011;7592;51.088;13.732;2022-07-29T23:49:04;7.33;;;4.80;;
14992;SDS011;7592;51.088;13.732;2022-07-29T23:53:56;6.90;;;6.17;;
14992;SDS011;7592;51.088;13.732;2022-07-29T23:58:48;10.03;;;6.63;;
